McLeod, North Dakota
Current Conditions -  °F | °C
As of 6:55 AM on Friday 24 Oct 2014 (Local Time) from KGWR Reporting Station
Clear Clear  
Wind Chill: 41°   Ceiling: Unl
Heat Index: 46°   Visibility: 10mi
Dew Point: 45°   Wind: 12mph
Humidity: 93%   Direction: 230°SW
Pressure: 29.82"   Gusts: NA
Location:  46.39°N, 97.3°W
Report Text: KGWR 241155Z AUTO 23010KT 10SM CLR 08/07 A2982 RMK A01 P000
Loading
Personal Weather Stations






























Interactive Weather Map
Tropical Storm Tracking
New forecast layout! Learn more

10-Day Weather Forecast

Advertisements
Track Severe Weather on mobile